createdAt,value
2018-03-01T00:02:04.129Z,40.10
2018-03-01T00:04:31.673Z,39.53
2018-03-01T00:06:59.771Z,45.13
2018-03-01T00:09:28.187Z,44.30
2018-03-01T00:11:55.856Z,34.17
2018-03-01T00:14:24.076Z,34.63
2018-03-01T00:16:52.772Z,41.17
2018-03-01T00:19:22.015Z,38.87
2018-03-01T00:21:54.452Z,43.90
2018-03-01T00:24:22.074Z,38.73
2018-03-01T00:26:52.380Z,41.00
2018-03-01T00:29:25.389Z,41.60
2018-03-01T00:31:55.538Z,43.93
2018-03-01T00:34:24.923Z,43.53
2018-03-01T00:36:54.949Z,36.13
2018-03-01T00:39:23.551Z,36.53
2018-03-01T00:41:52.653Z,42.07
2018-03-01T00:44:24.585Z,43.10
2018-03-01T00:46:54.781Z,45.37
2018-03-01T00:49:22.437Z,40.90
2018-03-01T00:51:50.596Z,40.50
2018-03-01T00:54:19.653Z,37.73
2018-03-01T00:56:51.208Z,39.17
2018-03-01T00:59:18.848Z,36.10
2018-03-01T01:01:48.668Z,39.70
2018-03-01T01:04:16.319Z,44.13
2018-03-01T01:06:44.020Z,38.77
2018-03-01T01:09:20.759Z,41.77
2018-03-01T01:11:51.764Z,41.80
2018-03-01T01:14:20.935Z,41.33
2018-03-01T01:16:49.270Z,33.80
2018-03-01T01:19:17.813Z,38.67
2018-03-01T01:21:46.316Z,45.27
2018-03-01T01:24:15.126Z,35.20
2018-03-01T01:26:43.495Z,42.73
2018-03-01T01:29:13.154Z,42.00
2018-03-01T01:31:41.651Z,38.10
2018-03-01T01:34:10.712Z,42.50
2018-03-01T01:39:13.055Z,42.97
2018-03-01T01:41:44.364Z,39.63
2018-03-01T01:44:12.845Z,40.77
2018-03-01T01:46:42.622Z,36.33
2018-03-01T01:49:10.265Z,60.47
2018-03-01T01:51:38.724Z,37.37
2018-03-01T01:54:12.180Z,43.27
2018-03-01T01:56:41.863Z,29.93
2018-03-01T01:59:13.268Z,36.77
2018-03-01T02:01:40.822Z,42.90
2018-03-01T02:04:10.030Z,33.87
2018-03-01T02:06:38.312Z,41.80
2018-03-01T02:09:06.004Z,45.87
2018-03-01T02:11:35.023Z,37.13
2018-03-01T02:14:02.869Z,35.27
2018-03-01T02:16:30.655Z,34.60
2018-03-01T02:18:59.426Z,35.43
2018-03-01T02:21:27.034Z,37.30
2018-03-01T02:23:58.055Z,37.93
2018-03-01T02:26:26.330Z,43.23
2018-03-01T02:28:54.829Z,37.60
2018-03-01T02:31:23.859Z,43.30
2018-03-01T02:33:51.931Z,46.20
2018-03-01T02:36:31.933Z,34.80
2018-03-01T02:38:59.773Z,33.93
2018-03-01T02:41:29.764Z,42.57
2018-03-01T02:43:59.983Z,42.47
2018-03-01T02:46:27.575Z,39.37
2018-03-01T02:48:55.095Z,39.13
2018-03-01T02:51:23.552Z,38.23
2018-03-01T02:53:52.624Z,39.73
2018-03-01T02:56:22.561Z,36.30
2018-03-01T02:58:50.171Z,38.47
2018-03-01T03:01:17.847Z,44.77
2018-03-01T03:03:46.148Z,41.80
2018-03-01T03:06:13.790Z,34.00
2018-03-01T03:08:41.348Z,38.40
2018-03-01T03:11:09.189Z,46.50
2018-03-01T03:13:38.171Z,42.27
2018-03-01T03:18:40.103Z,41.13
2018-03-01T03:21:09.576Z,45.73
2018-03-01T03:23:38.583Z,43.77
2018-03-01T03:26:06.996Z,40.10
2018-03-01T03:28:36.250Z,41.30
2018-03-01T03:31:04.660Z,43.83
2018-03-01T03:33:38.407Z,48.87
2018-03-01T03:36:07.487Z,33.57
2018-03-01T03:38:35.858Z,41.87
2018-03-01T03:41:03.569Z,41.00
2018-03-01T03:43:31.182Z,41.93
2018-03-01T03:45:59.534Z,44.97
2018-03-01T03:48:28.601Z,40.20
2018-03-01T03:51:03.454Z,37.43
2018-03-01T03:53:36.459Z,40.87
2018-03-01T03:56:08.176Z,38.63
2018-03-01T03:58:35.814Z,32.57
2018-03-01T04:01:14.635Z,38.83
2018-03-01T04:03:42.217Z,41.30
2018-03-01T04:06:15.406Z,42.97
2018-03-01T04:08:43.810Z,43.77
2018-03-01T04:11:12.703Z,36.60
2018-03-01T04:13:40.774Z,46.63
2018-03-01T04:16:08.515Z,43.97
2018-03-01T04:18:41.395Z,56.17
2018-03-01T04:21:09.025Z,39.93
2018-03-01T04:23:37.542Z,46.17
2018-03-01T04:26:08.212Z,44.80
2018-03-01T04:28:37.403Z,42.37
2018-03-01T04:31:05.919Z,44.60
2018-03-01T04:33:35.442Z,43.53
2018-03-01T04:36:05.096Z,42.57
2018-03-01T04:38:34.266Z,49.73
2018-03-01T04:41:02.159Z,42.97
2018-03-01T04:43:29.769Z,51.77
2018-03-01T04:45:58.286Z,45.63
2018-03-01T04:48:26.322Z,45.77
2018-03-01T04:50:53.941Z,41.30
2018-03-01T04:53:21.528Z,44.90
2018-03-01T04:55:49.106Z,40.10
2018-03-01T04:58:16.746Z,42.87
2018-03-01T05:00:44.316Z,40.77
2018-03-01T05:03:11.949Z,50.53
2018-03-01T05:05:39.548Z,51.73
2018-03-01T05:08:07.163Z,45.30
2018-03-01T05:10:35.042Z,40.90
2018-03-01T05:13:02.661Z,47.43
2018-03-01T05:15:30.247Z,50.17
2018-03-01T05:17:58.426Z,51.03
2018-03-01T05:20:26.111Z,51.57
2018-03-01T05:22:53.655Z,41.40
2018-03-01T05:25:21.282Z,49.47
2018-03-01T05:27:48.840Z,45.60
2018-03-01T05:30:16.453Z,46.80
2018-03-01T05:32:44.836Z,49.07
2018-03-01T05:35:12.385Z,45.80
2018-03-01T05:37:40.004Z,43.30
2018-03-01T05:40:07.585Z,42.13
2018-03-01T05:42:35.178Z,43.17
2018-03-01T05:45:02.820Z,53.10
2018-03-01T05:47:30.397Z,40.67
2018-03-01T05:49:58.303Z,51.07
2018-03-01T05:52:25.964Z,53.07
2018-03-01T05:54:53.653Z,54.17
2018-03-01T05:57:21.383Z,55.30
2018-03-01T05:59:49.068Z,48.17
2018-03-01T06:02:16.708Z,47.87
2018-03-01T06:04:44.226Z,43.73
2018-03-01T06:07:12.696Z,58.90
2018-03-01T06:09:40.292Z,47.43
2018-03-01T06:12:08.718Z,48.70
2018-03-01T06:14:36.291Z,52.93
2018-03-01T06:17:05.289Z,43.73
2018-03-01T06:19:32.931Z,49.97
2018-03-01T06:22:00.743Z,55.60
2018-03-01T06:24:28.288Z,45.57
2018-03-01T06:26:56.254Z,46.27
2018-03-01T06:29:24.222Z,60.67
2018-03-01T06:31:52.189Z,52.87
2018-03-01T06:34:19.807Z,48.20
2018-03-01T06:39:27.427Z,40.10
2018-03-01T06:41:55.023Z,48.57
2018-03-01T06:44:22.607Z,51.03
2018-03-01T06:46:50.149Z,55.13
2018-03-01T06:49:17.810Z,57.40
2018-03-01T06:51:45.386Z,47.83
2018-03-01T06:54:13.721Z,53.70
2018-03-01T06:56:41.331Z,48.77
2018-03-01T06:59:08.890Z,50.00
2018-03-01T07:01:36.419Z,39.90
2018-03-01T07:04:04.454Z,55.43
2018-03-01T07:06:34.512Z,52.57
2018-03-01T07:09:02.093Z,44.50
2018-03-01T07:11:29.628Z,45.53
2018-03-01T07:13:57.935Z,48.07
2018-03-01T07:16:25.568Z,47.57
2018-03-01T07:18:53.174Z,42.30
2018-03-01T07:21:21.582Z,55.63
2018-03-01T07:23:49.563Z,44.63
2018-03-01T07:26:18.799Z,47.33
2018-03-01T07:28:46.430Z,50.03
2018-03-01T07:31:14.052Z,51.13
2018-03-01T07:33:41.678Z,52.80
2018-03-01T07:36:09.880Z,53.13
2018-03-01T07:38:37.509Z,45.83
2018-03-01T07:41:05.113Z,41.17
2018-03-01T07:43:33.735Z,48.30
2018-03-01T07:46:01.327Z,55.00
2018-03-01T07:48:28.908Z,44.40
2018-03-01T07:50:56.546Z,50.63
2018-03-01T07:53:24.119Z,57.37
2018-03-01T07:55:52.408Z,47.20
2018-03-01T07:58:20.051Z,54.67
2018-03-01T08:00:47.658Z,49.13
2018-03-01T08:03:15.195Z,55.10
2018-03-01T08:05:43.137Z,44.30
2018-03-01T08:08:10.752Z,54.27
2018-03-01T08:10:38.367Z,51.53
2018-03-01T08:13:05.913Z,52.10
2018-03-01T08:15:33.963Z,55.60
2018-03-01T08:18:01.532Z,59.20
2018-03-01T08:20:29.234Z,53.20
2018-03-01T08:22:56.898Z,47.17
2018-03-01T08:25:25.629Z,51.40
2018-03-01T08:27:53.188Z,50.83
2018-03-01T08:30:20.733Z,46.03
2018-03-01T08:32:48.284Z,39.80
2018-03-01T08:35:15.824Z,54.10
2018-03-01T08:37:43.430Z,51.93
2018-03-01T08:40:11.004Z,50.37
2018-03-01T08:42:39.442Z,49.20
2018-03-01T08:45:07.082Z,46.10
2018-03-01T08:47:34.705Z,48.97
2018-03-01T08:50:02.367Z,42.57
2018-03-01T08:52:30.003Z,54.50
2018-03-01T08:54:57.669Z,59.53
2018-03-01T08:57:25.250Z,47.17
2018-03-01T08:59:52.751Z,52.00
2018-03-01T09:02:20.355Z,52.17
2018-03-01T09:04:47.956Z,47.67
2018-03-01T09:07:15.517Z,44.60
2018-03-01T09:09:43.111Z,46.00
2018-03-01T09:12:10.698Z,47.73
2018-03-01T09:14:38.353Z,49.33
2018-03-01T09:17:08.115Z,58.10
2018-03-01T09:19:35.728Z,43.17
2018-03-01T09:22:03.370Z,57.47
2018-03-01T09:24:32.500Z,44.70
2018-03-01T09:27:00.048Z,52.13
2018-03-01T09:29:29.651Z,42.23
2018-03-01T09:31:57.180Z,47.60
2018-03-01T09:34:24.783Z,49.20
2018-03-01T09:36:52.791Z,46.10
2018-03-01T09:39:20.519Z,53.03
2018-03-01T09:41:48.510Z,54.00
2018-03-01T09:44:16.067Z,48.90
2018-03-01T09:46:44.531Z,54.83
2018-03-01T09:49:12.485Z,48.53
2018-03-01T09:51:40.186Z,59.73
2018-03-01T09:54:07.811Z,54.17
2018-03-01T09:56:35.811Z,52.50
2018-03-01T09:59:03.393Z,48.93
2018-03-01T10:01:31.051Z,50.43
2018-03-01T10:03:58.638Z,53.23
2018-03-01T10:06:26.142Z,54.17
2018-03-01T10:08:53.758Z,48.53
2018-03-01T10:11:21.330Z,46.57
2018-03-01T10:13:48.919Z,50.20
2018-03-01T10:16:16.551Z,52.63
2018-03-01T10:18:44.159Z,51.17
2018-03-01T10:21:11.692Z,54.00
2018-03-01T10:23:39.241Z,48.47
2018-03-01T10:26:06.895Z,56.30
2018-03-01T10:28:38.408Z,44.73
2018-03-01T10:31:05.981Z,52.17
2018-03-01T10:33:39.043Z,53.00
2018-03-01T10:36:07.540Z,47.27
2018-03-01T10:38:35.147Z,48.07
2018-03-01T10:41:03.565Z,59.10
2018-03-01T10:43:31.196Z,48.67
2018-03-01T10:45:58.768Z,55.27
2018-03-01T10:48:26.396Z,51.47
2018-03-01T10:50:54.468Z,53.47
2018-03-01T10:53:22.036Z,50.57
2018-03-01T10:55:49.666Z,49.67
2018-03-01T10:58:17.615Z,46.23
2018-03-01T11:00:45.168Z,57.33
2018-03-01T11:03:12.778Z,51.33
2018-03-01T11:05:40.296Z,63.03
2018-03-01T11:08:07.856Z,62.53
2018-03-01T11:10:35.396Z,55.57
2018-03-01T11:13:03.020Z,62.27
2018-03-01T11:15:30.680Z,59.57
2018-03-01T11:17:58.305Z,75.07
2018-03-01T11:20:25.853Z,65.00
2018-03-01T11:22:53.388Z,54.80
2018-03-01T11:25:21.024Z,58.43
2018-03-01T11:27:48.677Z,61.27
2018-03-01T11:30:16.256Z,57.27
2018-03-01T11:32:43.926Z,61.53
2018-03-01T11:35:11.546Z,64.53
2018-03-01T11:37:39.804Z,59.93
2018-03-01T11:40:07.364Z,49.07
2018-03-01T11:42:35.252Z,54.77
2018-03-01T11:45:02.771Z,68.17
2018-03-01T11:47:30.374Z,50.40
2018-03-01T11:49:58.229Z,56.73
2018-03-01T11:52:25.793Z,62.67
2018-03-01T11:54:53.442Z,51.53
2018-03-01T11:57:21.019Z,62.50
2018-03-01T11:59:48.617Z,55.83
2018-03-01T12:02:16.220Z,55.20
2018-03-01T12:04:43.792Z,65.50
2018-03-01T12:07:11.361Z,59.13
2018-03-01T12:09:39.163Z,54.57
2018-03-01T12:12:07.501Z,60.13
2018-03-01T12:14:35.510Z,60.10
2018-03-01T12:17:03.145Z,60.37
2018-03-01T12:19:30.763Z,58.27
2018-03-01T12:21:58.438Z,60.63
2018-03-01T12:24:25.959Z,57.90
2018-03-01T12:26:53.580Z,59.63
2018-03-01T12:29:22.199Z,70.13
2018-03-01T12:31:50.643Z,60.23
2018-03-01T12:34:18.246Z,60.60
2018-03-01T12:36:45.750Z,62.23
2018-03-01T12:39:13.482Z,57.60
2018-03-01T12:41:41.072Z,64.00
2018-03-01T12:44:08.580Z,57.60
2018-03-01T12:46:36.143Z,57.83
2018-03-01T12:49:03.683Z,57.93
2018-03-01T12:51:31.244Z,60.00
2018-03-01T12:54:00.836Z,57.33
2018-03-01T12:56:28.372Z,61.60
2018-03-01T12:58:55.935Z,58.13
2018-03-01T13:01:23.490Z,56.73
2018-03-01T13:03:51.056Z,59.87
2018-03-01T13:06:18.531Z,83.87
2018-03-01T13:08:46.072Z,59.93
2018-03-01T13:11:13.948Z,54.57
2018-03-01T13:13:42.020Z,65.50
2018-03-01T13:16:09.633Z,68.90
2018-03-01T13:18:37.223Z,66.27
2018-03-01T13:21:04.834Z,57.37
2018-03-01T13:23:32.718Z,61.33
2018-03-01T13:26:00.245Z,65.27
2018-03-01T13:28:27.749Z,57.90
2018-03-01T13:30:56.144Z,56.63
2018-03-01T13:33:27.087Z,51.77
2018-03-01T13:36:02.077Z,57.90
2018-03-01T13:38:29.603Z,70.17
2018-03-01T13:40:57.135Z,61.27
2018-03-01T13:43:26.245Z,63.63
2018-03-01T13:46:08.735Z,61.37
2018-03-01T13:48:36.566Z,58.77
2018-03-01T13:51:04.316Z,64.43
2018-03-01T13:53:32.270Z,65.67
2018-03-01T13:56:00.705Z,54.73
2018-03-01T13:58:28.296Z,63.90
2018-03-01T14:00:56.218Z,61.47
2018-03-01T14:03:23.792Z,60.07
2018-03-01T14:06:09.164Z,54.93
2018-03-01T14:08:36.709Z,59.30
2018-03-01T14:11:04.279Z,60.30
2018-03-01T14:13:31.899Z,58.27
2018-03-01T14:15:59.495Z,70.27
2018-03-01T14:18:37.015Z,64.23
2018-03-01T14:21:15.431Z,65.93
2018-03-01T14:23:44.431Z,63.13
2018-03-01T14:26:18.605Z,64.97
2018-03-01T14:29:01.074Z,69.47
2018-03-01T14:31:29.218Z,60.40
2018-03-01T14:33:56.759Z,66.10
2018-03-01T14:36:24.369Z,67.93
2018-03-01T14:38:52.328Z,63.70
2018-03-01T14:41:20.287Z,56.97
2018-03-01T14:43:48.175Z,63.53
2018-03-01T14:46:15.910Z,65.03
2018-03-01T14:48:43.539Z,61.83
2018-03-01T14:51:12.170Z,67.77
2018-03-01T14:53:40.085Z,59.77
2018-03-01T14:56:07.641Z,73.87
2018-03-01T14:58:35.254Z,63.80
2018-03-01T15:01:03.383Z,68.97
2018-03-01T15:03:30.990Z,65.43
2018-03-01T15:06:02.657Z,59.60
2018-03-01T15:08:30.283Z,60.90
2018-03-01T15:10:57.827Z,61.10
2018-03-01T15:13:25.419Z,64.80
2018-03-01T15:15:52.968Z,64.63
2018-03-01T15:18:20.540Z,70.50
2018-03-01T15:20:48.252Z,68.03
2018-03-01T15:23:17.234Z,64.97
2018-03-01T15:25:45.601Z,59.03
2018-03-01T15:28:13.191Z,62.17
2018-03-01T15:30:40.701Z,65.23
2018-03-01T15:33:08.246Z,70.30
2018-03-01T15:35:35.791Z,58.17
2018-03-01T15:38:03.789Z,64.53
2018-03-01T15:40:31.301Z,63.80
2018-03-01T15:42:58.820Z,55.47
2018-03-01T15:45:26.330Z,67.50
2018-03-01T15:47:54.250Z,64.73
2018-03-01T15:50:22.209Z,70.83
2018-03-01T15:52:49.958Z,59.10
2018-03-01T15:55:17.527Z,64.80
2018-03-01T15:57:45.450Z,62.43
2018-03-01T16:00:13.372Z,64.07
2018-03-01T16:02:40.919Z,61.50
2018-03-01T16:05:08.532Z,81.90
2018-03-01T16:07:36.496Z,65.83
2018-03-01T16:10:03.994Z,66.60
2018-03-01T16:12:31.529Z,56.40
2018-03-01T16:14:59.099Z,58.50
2018-03-01T16:17:26.681Z,53.80
2018-03-01T16:19:54.187Z,56.20
2018-03-01T16:22:21.750Z,59.50
2018-03-01T16:24:49.676Z,58.00
2018-03-01T16:27:17.182Z,61.90
2018-03-01T16:29:45.144Z,64.07
2018-03-01T16:32:13.019Z,64.37
2018-03-01T16:34:40.499Z,58.63
2018-03-01T16:37:08.068Z,60.87
2018-03-01T16:39:35.685Z,59.97
2018-03-01T16:42:03.627Z,59.60
2018-03-01T16:44:31.171Z,65.03
2018-03-01T16:46:58.675Z,63.97
2018-03-01T16:49:27.023Z,62.30
2018-03-01T16:51:54.564Z,60.93
2018-03-01T16:54:22.195Z,59.60
2018-03-01T16:56:49.802Z,59.70
2018-03-01T16:59:17.422Z,61.60
2018-03-01T17:01:45.094Z,54.17
2018-03-01T17:04:12.631Z,62.27
2018-03-01T17:06:40.247Z,64.73
2018-03-01T17:09:07.826Z,64.07
2018-03-01T17:11:35.439Z,60.40
2018-03-01T17:14:03.057Z,74.00
2018-03-01T17:16:30.620Z,69.57
2018-03-01T17:18:58.345Z,65.60
2018-03-01T17:21:26.357Z,71.80
2018-03-01T17:23:54.008Z,65.63
2018-03-01T17:26:21.558Z,66.10
2018-03-01T17:28:49.095Z,65.57
2018-03-01T17:31:16.651Z,71.63
2018-03-01T17:33:44.686Z,69.47
2018-03-01T17:36:12.282Z,64.97
2018-03-01T17:38:39.874Z,64.40
2018-03-01T17:41:07.393Z,59.17
2018-03-01T17:43:35.292Z,54.53
2018-03-01T17:46:02.912Z,62.20
2018-03-01T17:48:30.465Z,64.23
2018-03-01T17:50:58.085Z,68.93
2018-03-01T17:53:25.611Z,70.13
2018-03-01T17:55:53.184Z,64.20
2018-03-01T17:58:20.749Z,71.13
2018-03-01T18:00:48.319Z,66.53
2018-03-01T18:03:15.838Z,55.93
2018-03-01T18:05:43.871Z,72.47
2018-03-01T18:08:11.471Z,65.83
2018-03-01T18:10:39.481Z,56.13
2018-03-01T18:13:07.127Z,72.97
2018-03-01T18:15:34.716Z,67.23
2018-03-01T18:18:02.241Z,62.73
2018-03-01T18:20:29.879Z,60.83
2018-03-01T18:22:57.434Z,68.70
2018-03-01T18:25:25.416Z,71.07
2018-03-01T18:27:53.016Z,59.60
2018-03-01T18:30:20.975Z,64.13
2018-03-01T18:32:48.539Z,58.40
2018-03-01T18:35:16.130Z,66.30
2018-03-01T18:37:43.761Z,66.20
2018-03-01T18:40:11.275Z,73.43
2018-03-01T18:42:39.637Z,61.73
2018-03-01T18:45:07.619Z,71.07
2018-03-01T18:47:35.239Z,71.53
2018-03-01T18:50:02.777Z,64.73
2018-03-01T18:52:30.311Z,73.93
2018-03-01T18:54:57.931Z,67.83
2018-03-01T18:57:25.958Z,58.53
2018-03-01T18:59:53.642Z,63.00
2018-03-01T19:02:21.134Z,59.20
2018-03-01T19:04:49.159Z,67.10
2018-03-01T19:07:16.779Z,65.60
2018-03-01T19:09:45.707Z,66.00
2018-03-01T19:12:14.112Z,65.83
2018-03-01T19:14:41.684Z,67.27
2018-03-01T19:17:09.638Z,67.50
2018-03-01T19:19:37.650Z,60.77
2018-03-01T19:22:05.249Z,62.37
2018-03-01T19:24:32.873Z,76.90
2018-03-01T19:27:00.419Z,72.20
2018-03-01T19:29:27.988Z,69.80
2018-03-01T19:31:55.578Z,63.37
2018-03-01T19:34:23.176Z,66.27
2018-03-01T19:36:51.187Z,68.83
2018-03-01T19:39:18.800Z,78.27
2018-03-01T19:41:46.779Z,73.27
2018-03-01T19:44:14.868Z,75.53
2018-03-01T19:46:42.834Z,88.73
2018-03-01T19:49:10.494Z,74.03
2018-03-01T19:51:38.143Z,63.47
2018-03-01T19:54:05.765Z,69.77
2018-03-01T19:56:33.601Z,61.33
2018-03-01T19:59:01.220Z,67.67
2018-03-01T20:01:32.345Z,71.27
2018-03-01T20:03:59.928Z,75.50
2018-03-01T20:06:27.566Z,63.97
2018-03-01T20:08:55.171Z,70.70
2018-03-01T20:11:22.842Z,71.57
2018-03-01T20:13:50.484Z,71.17
2018-03-01T20:16:18.132Z,75.10
2018-03-01T20:18:45.704Z,69.67
2018-03-01T20:21:13.369Z,67.13
2018-03-01T20:23:40.997Z,67.83
2018-03-01T20:26:09.061Z,70.87
2018-03-01T20:28:37.125Z,75.57
2018-03-01T20:31:05.955Z,65.03
2018-03-01T20:33:33.584Z,66.63
2018-03-01T20:36:01.289Z,74.97
2018-03-01T20:38:28.817Z,71.73
2018-03-01T20:40:56.472Z,76.70
2018-03-01T20:43:24.473Z,74.93
2018-03-01T20:45:52.090Z,76.27
2018-03-01T20:48:22.430Z,61.90
2018-03-01T20:50:50.176Z,63.50
2018-03-01T20:53:18.317Z,66.90
2018-03-01T20:55:47.865Z,68.23
2018-03-01T20:58:15.678Z,81.90
2018-03-01T21:00:43.318Z,69.27
2018-03-01T21:03:12.258Z,62.53
2018-03-01T21:05:41.026Z,69.33
2018-03-01T21:08:08.614Z,66.43
2018-03-01T21:10:36.176Z,69.17
2018-03-01T21:13:04.176Z,68.97
2018-03-01T21:15:31.811Z,77.23
2018-03-01T21:17:59.421Z,62.83
2018-03-01T21:20:27.040Z,64.50
2018-03-01T21:22:54.697Z,79.53
2018-03-01T21:25:22.211Z,59.63
2018-03-01T21:27:49.735Z,76.50
2018-03-01T21:30:17.316Z,67.47
2018-03-01T21:32:44.947Z,59.90
2018-03-01T21:35:12.521Z,66.67
2018-03-01T21:37:40.155Z,65.47
2018-03-01T21:40:07.656Z,69.00
2018-03-01T21:42:35.231Z,61.40
2018-03-01T21:45:02.856Z,75.03
2018-03-01T21:47:30.413Z,68.37
2018-03-01T21:49:57.922Z,58.47
2018-03-01T21:52:25.498Z,69.83
2018-03-01T21:54:53.019Z,69.77
2018-03-01T21:57:20.565Z,72.67
2018-03-01T21:59:48.106Z,66.03
2018-03-01T22:02:15.668Z,70.70
2018-03-01T22:04:43.211Z,68.43
2018-03-01T22:07:10.804Z,64.57
2018-03-01T22:09:38.326Z,58.23
2018-03-01T22:12:05.867Z,71.97
2018-03-01T22:14:37.047Z,65.40
2018-03-01T22:17:04.602Z,59.73
2018-03-01T22:19:32.140Z,61.03
2018-03-01T22:21:59.756Z,64.73
2018-03-01T22:24:27.399Z,63.83
2018-03-01T22:26:55.016Z,68.00
2018-03-01T22:29:22.675Z,64.53
2018-03-01T22:31:50.338Z,61.27
2018-03-01T22:34:17.926Z,65.00
2018-03-01T22:36:45.490Z,60.03
2018-03-01T22:39:13.109Z,67.60
2018-03-01T22:41:40.639Z,63.90
2018-03-01T22:44:08.219Z,60.77
2018-03-01T22:46:35.825Z,59.97
2018-03-01T22:49:03.447Z,56.97
2018-03-01T22:51:31.093Z,76.30
2018-03-01T22:53:58.682Z,63.40
2018-03-01T22:56:26.236Z,61.37
2018-03-01T22:58:53.869Z,66.17
2018-03-01T23:01:21.408Z,61.03
2018-03-01T23:03:49.346Z,58.73
2018-03-01T23:06:16.948Z,58.50
2018-03-01T23:08:44.975Z,60.73
2018-03-01T23:11:12.609Z,62.67
2018-03-01T23:13:40.256Z,60.47
2018-03-01T23:16:07.848Z,55.37
2018-03-01T23:18:35.469Z,60.57
2018-03-01T23:21:03.054Z,59.67
2018-03-01T23:23:30.627Z,58.20
2018-03-01T23:25:58.138Z,59.67
2018-03-01T23:28:25.683Z,53.73
2018-03-01T23:30:53.311Z,59.03
2018-03-01T23:33:20.848Z,51.90
2018-03-01T23:35:48.576Z,58.17
2018-03-01T23:38:16.189Z,69.00
2018-03-01T23:40:43.829Z,52.10
2018-03-01T23:43:11.417Z,57.07
2018-03-01T23:45:39.063Z,64.07
2018-03-01T23:48:06.676Z,57.57
2018-03-01T23:50:34.254Z,63.33
2018-03-01T23:53:01.858Z,57.93
2018-03-01T23:55:29.450Z,52.03
2018-03-01T23:57:57.026Z,60.30
